AirNav   Pilot Hours Calculator
 
 1540 users online  

0L9 Echo Bay Airport
Overton, Nevada, USA

GOING TO OVERTON?


FAA INFORMATION EFFECTIVE 19 MAY 2022

Location

FAA Identifier: 0L9
Lat/Long: 36-18-39.7000N 114-27-50.0000W
36-18.661667N 114-27.833333W
36.3110278,-114.4638889
(estimated)
Elevation: 1535 ft. / 467.9 m (surveyed)
Variation: 14E (1985)
From city: 14 miles S of OVERTON, NV
Time zone: UTC -7 (UTC -8 during Standard Time)
Zip code: 89040

Airport Operations

Airport use: Open to the public
Control tower: no
ARTCC: LOS ANGELES CENTER
FSS: RENO FLIGHT SERVICE STATION
NOTAMs facility: RNO (NOTAM-D service available)
Attendance: ON CALL
Segmented circle: yes

Airport Communications

CTAF/UNICOM: 122.8

Nearby radio navigation aids

VOR radial/distance  VOR name  Freq  Var
BLDr031/27.1BOULDER CITY VORTAC116.7015E
MMMr182/28.9MORMON MESA VORTAC114.3016E
LASr053/36.4LAS VEGAS VORTAC116.9015E

Airport Services

Parking: tiedowns

Runway Information

Runway 6/24

Dimensions: 3400 x 50 ft. / 1036 x 15 m
Surface: asphalt, in good condition
Weight bearing capacity: 
Single wheel: 12.5
Operational restrictions: ARR RWY 24 & DEP RWY 6 RCMDD IN LGT WIND DUE TO SLOPE.
RUNWAY 6  RUNWAY 24
Latitude: 36-18.607492N36-18.717037N
Longitude: 114-28.173280W114-27.494103W
Traffic pattern: leftright
Runway heading: 065 magnetic, 079 true245 magnetic, 259 true
Markings: basic, in fair conditionbasic, in fair condition
Runway end identifier lights: nono

Airport Ownership and Management from official FAA records

Ownership: Publicly-owned
Owner: LAKE MEAD NATL REC AREA
NATIONAL PARK SERVICE, INTER REG 8, 601 NEVADA HIGHWAY
BOULDER, NV 89005
Phone 702-293-8990
Manager: LUCAS RHEA
601 NEVADA HWY
BOULDER CITY, NV 89005
Phone 702-556-2255
EMERG - 702-293-8932.

Airport Operational Statistics

Aircraft operations: avg 21/week *
67% transient general aviation
33% military
* for 12-month period ending 30 June 2021

Additional Remarks

LIVESTOCK ON & INVOF ARPT.
PARL TWY SFC ROUGH.
FOR CD CTC LOS ANGELES ARTCC AT 661-575-2079.
3-4 FT BRUSH & WEEDS IN RSA.
RESORT TAXI SVC - MON UNICOM.

Instrument Procedures

There are no published instrument procedures at 0L9.

Some nearby airports with instrument procedures:

KLSV - Nellis Air Force Base (28 nm W)
KBVU - Boulder City Municipal Airport (29 nm SW)
KVGT - North Las Vegas Airport (36 nm W)
KLAS - Harry Reid International Airport (36 nm W)
67L - Mesquite Airport (37 nm NE)
 
Loc | Ops | Rwys | IFR | FBO | Links
Com | Nav | Svcs | Stats | Notes
Area around 0L9 (Echo Bay Airport)
 
Road maps at: MapQuest Bing Google
 
Aerial photo
WARNING: Photo may not be current or correct
Aerial photo of 0L9 (Echo Bay Airport)
Do you have a better or more recent aerial photo of Echo Bay Airport that you would like to share? If so, please send us your photo.

 
Sectional chart

 
Airport distance calculator
Flying to Echo Bay Airport? Find the distance to fly.

From to 0L9

Sunrise and sunset
Times for 24-May-2022
 Local
(UTC-7)
 Zulu
(UTC)
Morning civil twilight04:5711:57
Sunrise05:2612:26
Sunset19:4302:43
Evening civil twilight20:1303:13

Current date and time
Zulu (UTC)  24-May-2022 16:46:02
Local (UTC-7)  24-May-2022 09:46:02
 
METAR
KLSV 
27nm W 
241458Z AUTO 06007KT 10SM CLR 24/M12 A2992 RMK AO2 SLPNO T02421122 52017 $
KBVU 
29nm SW 
241635Z AUTO 04006KT 10SM CLR 26/M13 A2994 RMK AO2
KLAS 
36nm W 
241556Z 11005KT 10SM CLR 26/M09 A2995 RMK AO2 SLP119 T02561089
KVGT 
36nm W 
241553Z VRB04KT 10SM CLR 26/M08 A2994 RMK AO2 SLP133 T02611078
KHND 
38nm SW 
241556Z 04006KT 10SM CLR 25/M09 A2998 RMK AO2 SLP142 T02501094
TAF
KLSV 
27nm W 
241500Z 2415/2521 07006KT 9999 SKC QNH2992INS BECMG 2419/2420 13006KT 9999 SKC QNH2977INS BECMG 2503/2504 32006KT 9999 SKC QNH2978INS BECMG 2506/2507 33010G15KT 9999 SKC QNH2981INS BECMG 2515/2516 13004KT 9999 SKC QNH2985INS TX34/2423Z TN17/2512Z
NOTAMs
Click for the latest NOTAMs
NOTAMs are issued by the DoD/FAA and will open in a separate window not controlled by AirNav.

 

 
 

Would you like to see your business listed on this page?

 If your business provides an interesting product or service to pilots, flight crews, aircraft, or users of the Echo Bay Airport, you should consider listing it here.  To start the listing process, click on the button below
 
Add a business
 

Other Pages about Echo Bay Airport

Update a link
 
Copyright © AirNav, LLC. All rights reserved. Privacy Policy  Contact